createdAt,value
2022-11-14T00:00:46.664Z,32.65
2022-11-14T00:01:32.244Z,32.74
2022-11-14T00:03:06.947Z,32.64
2022-11-14T00:03:50.052Z,32.60
2022-11-14T00:04:37.562Z,32.62
2022-11-14T00:06:59.040Z,32.47
2022-11-14T00:07:42.825Z,32.50
2022-11-14T00:08:28.683Z,32.40
2022-11-14T00:09:13.170Z,32.45
2022-11-14T00:10:45.485Z,32.55
2022-11-14T00:11:31.286Z,32.53
2022-11-14T00:12:15.698Z,32.18
2022-11-14T00:13:00.967Z,32.37
2022-11-14T00:13:47.294Z,32.24
2022-11-14T00:16:55.765Z,32.36
2022-11-14T00:17:39.821Z,32.50
2022-11-14T00:18:24.263Z,32.42
2022-11-14T00:19:12.185Z,32.48
2022-11-14T00:20:45.266Z,32.38
2022-11-14T00:21:29.746Z,32.31
2022-11-14T00:22:13.656Z,32.29
2022-11-14T00:22:58.248Z,32.37
2022-11-14T00:23:46.301Z,32.32
2022-11-14T00:26:04.209Z,32.29
2022-11-14T00:26:54.995Z,32.46
2022-11-14T00:27:37.906Z,32.48
2022-11-14T00:28:22.887Z,32.53
2022-11-14T00:29:05.738Z,32.27
2022-11-14T00:29:50.408Z,32.22
2022-11-14T00:30:36.885Z,32.44
2022-11-14T00:32:07.962Z,32.36
2022-11-14T00:32:54.058Z,32.31
2022-11-14T00:34:29.025Z,32.36
2022-11-14T00:35:12.273Z,32.29
2022-11-14T00:35:56.856Z,32.24
2022-11-14T00:37:30.020Z,32.27
2022-11-14T00:38:15.925Z,32.06
2022-11-14T00:38:59.813Z,32.08
2022-11-14T00:39:44.030Z,32.05
2022-11-14T00:43:01.938Z,32.11
2022-11-14T00:43:49.916Z,32.06
2022-11-14T00:44:39.300Z,32.21
2022-11-14T00:45:29.031Z,32.02
2022-11-14T00:46:12.957Z,32.08
2022-11-14T00:47:46.505Z,32.06
2022-11-14T00:48:31.386Z,32.18
2022-11-14T00:49:17.949Z,32.23
2022-11-14T00:50:00.367Z,32.14
2022-11-14T00:50:50.243Z,32.01
2022-11-14T00:51:33.790Z,32.10
2022-11-14T00:52:17.541Z,32.04
2022-11-14T00:53:00.826Z,32.14
2022-11-14T00:53:45.311Z,32.12
2022-11-14T00:56:05.081Z,31.83
2022-11-14T00:56:49.564Z,31.92
2022-11-14T00:57:34.331Z,32.05
2022-11-14T00:58:19.392Z,32.07
2022-11-14T00:59:07.884Z,31.92
2022-11-14T00:59:50.405Z,31.86
2022-11-14T01:00:38.403Z,31.88
2022-11-14T01:03:00.347Z,31.80
2022-11-14T01:03:51.676Z,31.83
2022-11-14T01:04:34.653Z,31.81
2022-11-14T01:06:06.694Z,31.82
2022-11-14T01:06:56.636Z,31.77
2022-11-14T01:07:54.631Z,31.95
2022-11-14T01:08:42.438Z,31.93
2022-11-14T01:09:27.089Z,31.97
2022-11-14T01:10:12.191Z,32.04
2022-11-14T01:10:57.624Z,31.78
2022-11-14T01:11:41.197Z,31.91
2022-11-14T01:12:31.339Z,31.79
2022-11-14T01:13:15.252Z,31.82
2022-11-14T01:14:00.391Z,32.03
2022-11-14T01:14:44.154Z,32.03
2022-11-14T01:15:34.270Z,31.92
2022-11-14T01:16:16.809Z,31.69
2022-11-14T01:17:04.383Z,31.89
2022-11-14T01:17:50.673Z,31.89
2022-11-14T01:18:34.571Z,31.90
2022-11-14T01:19:23.080Z,31.76
2022-11-14T01:20:13.087Z,31.94
2022-11-14T01:20:58.673Z,31.91
2022-11-14T01:21:43.220Z,31.66
2022-11-14T01:22:30.960Z,31.86
2022-11-14T01:23:14.555Z,31.57
2022-11-14T01:23:57.997Z,31.86
2022-11-14T01:24:42.055Z,31.84
2022-11-14T01:26:15.159Z,31.66
2022-11-14T01:27:02.193Z,31.70
2022-11-14T01:27:49.928Z,31.86
2022-11-14T01:28:34.897Z,31.77
2022-11-14T01:29:18.623Z,31.78
2022-11-14T01:30:08.088Z,31.83
2022-11-14T01:31:42.732Z,31.83
2022-11-14T01:32:28.099Z,31.80
2022-11-14T01:33:13.308Z,31.60
2022-11-14T01:33:59.050Z,31.68
2022-11-14T01:34:42.536Z,31.71
2022-11-14T01:35:26.390Z,31.68
2022-11-14T01:36:12.294Z,31.76
2022-11-14T01:36:58.440Z,31.74
2022-11-14T01:37:43.063Z,31.70
2022-11-14T01:38:30.166Z,31.69
2022-11-14T01:39:14.598Z,31.81
2022-11-14T01:41:38.316Z,31.62
2022-11-14T01:42:27.309Z,31.80
2022-11-14T01:43:12.351Z,31.83
2022-11-14T01:44:00.027Z,31.64
2022-11-14T01:44:45.890Z,31.80
2022-11-14T01:45:30.243Z,31.72
2022-11-14T01:46:16.633Z,31.69
2022-11-14T01:47:01.264Z,31.70
2022-11-14T01:48:34.421Z,31.69
2022-11-14T01:49:25.042Z,31.78
2022-11-14T01:50:10.008Z,31.67
2022-11-14T01:50:54.380Z,31.60
2022-11-14T01:51:36.403Z,31.68
2022-11-14T01:52:22.303Z,31.70
2022-11-14T01:53:54.465Z,31.78
2022-11-14T01:55:26.553Z,31.75
2022-11-14T01:56:10.195Z,31.64
2022-11-14T01:56:54.805Z,31.73
2022-11-14T01:57:38.997Z,31.65
2022-11-14T01:58:24.439Z,31.79
2022-11-14T01:59:08.760Z,31.74
2022-11-14T01:59:56.662Z,31.70
2022-11-14T02:02:21.448Z,31.42
2022-11-14T02:03:53.493Z,31.46
2022-11-14T02:04:38.809Z,31.73
2022-11-14T02:05:21.101Z,31.77
2022-11-14T02:06:05.476Z,31.80
2022-11-14T02:06:55.539Z,31.69
2022-11-14T02:07:40.911Z,31.67
2022-11-14T02:08:25.190Z,31.83
2022-11-14T02:09:08.652Z,31.78
2022-11-14T02:09:53.193Z,31.89
2022-11-14T02:10:37.429Z,31.70
2022-11-14T02:11:28.886Z,31.85
2022-11-14T02:13:01.068Z,31.59
2022-11-14T02:15:21.789Z,31.56
2022-11-14T02:16:07.032Z,31.70
2022-11-14T02:17:22.285Z,31.57
2022-11-14T02:19:32.791Z,31.68
2022-11-14T02:20:17.283Z,31.71
2022-11-14T02:21:02.356Z,31.62
2022-11-14T02:21:46.719Z,31.63
2022-11-14T02:22:31.292Z,31.63
2022-11-14T02:24:04.308Z,31.58
2022-11-14T02:24:48.929Z,31.41
2022-11-14T02:25:33.126Z,31.50
2022-11-14T02:26:17.436Z,31.74
2022-11-14T02:27:03.420Z,31.55
2022-11-14T02:27:47.955Z,31.52
2022-11-14T02:28:37.337Z,31.58
2022-11-14T02:29:22.217Z,31.46
2022-11-14T02:30:55.245Z,31.68
2022-11-14T02:31:40.449Z,31.58
2022-11-14T02:32:24.007Z,31.64
2022-11-14T02:33:10.927Z,31.47
2022-11-14T02:33:55.082Z,31.47
2022-11-14T02:34:38.439Z,31.63
2022-11-14T02:35:22.809Z,31.51
2022-11-14T02:36:52.984Z,31.44
2022-11-14T02:37:37.543Z,31.45
2022-11-14T02:38:31.383Z,31.35
2022-11-14T02:39:20.294Z,31.24
2022-11-14T02:40:04.036Z,31.32
2022-11-14T02:40:54.877Z,31.44
2022-11-14T02:41:39.505Z,31.40
2022-11-14T02:42:22.737Z,31.21
2022-11-14T02:43:54.660Z,31.10
2022-11-14T02:45:32.900Z,31.25
2022-11-14T02:46:14.018Z,31.29
2022-11-14T02:47:01.353Z,31.43
2022-11-14T02:47:49.904Z,31.33
2022-11-14T02:48:33.974Z,31.38
2022-11-14T02:49:18.041Z,31.39
2022-11-14T02:50:51.992Z,31.41
2022-11-14T02:51:41.142Z,31.41
2022-11-14T02:52:26.189Z,31.17
2022-11-14T02:53:10.963Z,31.24
2022-11-14T02:55:33.500Z,31.35
2022-11-14T02:57:05.386Z,31.37
2022-11-14T02:57:48.431Z,31.35
2022-11-14T02:58:34.285Z,31.35
2022-11-14T02:59:17.419Z,31.25
2022-11-14T03:01:18.416Z,31.29
2022-11-14T03:01:54.194Z,31.37
2022-11-14T03:02:46.665Z,31.42
2022-11-14T03:03:31.160Z,31.12
2022-11-14T03:04:14.544Z,31.39
2022-11-14T03:05:06.914Z,31.49
2022-11-14T03:06:51.160Z,31.45
2022-11-14T03:07:38.088Z,31.40
2022-11-14T03:09:58.703Z,31.41
2022-11-14T03:10:48.823Z,31.38
2022-11-14T03:11:34.072Z,31.57
2022-11-14T03:12:17.760Z,31.43
2022-11-14T03:13:50.386Z,31.43
2022-11-14T03:15:23.875Z,31.42
2022-11-14T03:16:13.151Z,31.34
2022-11-14T03:16:58.850Z,31.27
2022-11-14T03:17:45.790Z,31.40
2022-11-14T03:19:17.015Z,31.21
2022-11-14T03:20:01.616Z,31.40
2022-11-14T03:20:47.371Z,31.27
2022-11-14T03:21:35.777Z,31.18
2022-11-14T03:22:20.158Z,31.26
2022-11-14T03:23:14.074Z,31.30
2022-11-14T03:23:59.836Z,31.38
2022-11-14T03:24:44.818Z,31.23
2022-11-14T03:25:29.520Z,31.17
2022-11-14T03:27:03.752Z,31.27
2022-11-14T03:27:48.404Z,31.25
2022-11-14T03:28:35.761Z,31.30
2022-11-14T03:29:20.400Z,31.22
2022-11-14T03:32:30.091Z,31.01
2022-11-14T06:23:42.055Z,30.65
2022-11-14T06:24:30.551Z,30.67
2022-11-14T06:25:20.715Z,30.58
2022-11-14T06:26:08.946Z,30.62
2022-11-14T06:26:56.853Z,30.61
2022-11-14T06:27:47.379Z,30.69
2022-11-14T06:28:38.085Z,30.70
2022-11-14T06:29:24.291Z,30.73
2022-11-14T06:30:12.817Z,30.75
2022-11-14T06:30:59.955Z,30.73
2022-11-14T06:31:46.017Z,30.43
2022-11-14T06:32:36.222Z,30.70
2022-11-14T06:33:19.837Z,30.63
2022-11-14T06:34:06.450Z,30.74
2022-11-14T06:34:52.737Z,30.82
2022-11-14T06:35:42.523Z,30.69
2022-11-14T06:36:28.312Z,30.56
2022-11-14T06:37:14.427Z,30.50
2022-11-14T06:38:04.768Z,30.51
2022-11-14T06:38:47.523Z,30.63
2022-11-14T06:39:33.074Z,30.75
2022-11-14T06:40:24.277Z,30.69
2022-11-14T06:41:10.829Z,30.77
2022-11-14T06:42:01.777Z,30.70
2022-11-14T06:42:49.067Z,30.65
2022-11-14T06:43:38.868Z,30.63
2022-11-14T06:44:29.467Z,30.52
2022-11-14T06:45:12.394Z,30.41
2022-11-14T06:45:58.579Z,30.71
2022-11-14T06:46:44.100Z,30.61
2022-11-14T06:47:33.719Z,30.58
2022-11-14T06:48:19.739Z,30.49
2022-11-14T06:49:06.399Z,30.71
2022-11-14T06:49:51.590Z,30.72
2022-11-14T06:50:37.305Z,30.61
2022-11-14T06:51:23.200Z,30.62
2022-11-14T06:52:08.951Z,30.64
2022-11-14T06:52:55.012Z,30.52
2022-11-14T06:53:37.293Z,30.61
2022-11-14T06:54:20.978Z,30.45
2022-11-14T06:55:08.637Z,30.58
2022-11-14T06:55:53.317Z,30.67
2022-11-14T06:56:34.202Z,30.70
2022-11-14T06:57:08.019Z,30.52
2022-11-14T06:57:44.356Z,30.61
2022-11-14T06:58:21.087Z,30.72
2022-11-14T06:58:58.062Z,30.69
2022-11-14T06:59:33.783Z,30.54
2022-11-14T07:00:09.348Z,30.71
2022-11-14T07:00:45.967Z,30.63
2022-11-14T07:01:23.031Z,30.76
2022-11-14T07:01:59.113Z,30.74
2022-11-14T07:02:35.457Z,30.64
2022-11-14T07:03:12.568Z,30.60
2022-11-14T07:03:50.032Z,30.72
2022-11-14T07:04:26.513Z,30.71
2022-11-14T07:05:02.021Z,30.70
2022-11-14T07:05:37.628Z,30.76
2022-11-14T07:06:14.416Z,30.69
2022-11-14T07:06:50.855Z,30.59
2022-11-14T07:07:28.762Z,30.69
2022-11-14T07:08:04.677Z,30.71
2022-11-14T07:08:40.957Z,30.61
2022-11-14T07:09:17.899Z,30.64
2022-11-14T07:09:54.958Z,30.73
2022-11-14T07:10:30.954Z,30.63
2022-11-14T07:11:06.814Z,30.57
2022-11-14T07:11:43.416Z,30.54
2022-11-14T07:12:20.140Z,30.67
2022-11-14T07:12:56.658Z,30.56
2022-11-14T07:13:32.633Z,30.66
2022-11-14T07:14:09.844Z,30.69
2022-11-14T07:14:46.349Z,30.71
2022-11-14T07:15:22.695Z,30.50
2022-11-14T07:16:00.298Z,30.48
2022-11-14T07:16:36.332Z,30.77
2022-11-14T07:17:13.404Z,30.56
2022-11-14T07:17:49.707Z,30.58
2022-11-14T07:18:27.017Z,30.67
2022-11-14T07:19:04.155Z,30.50
2022-11-14T07:19:40.405Z,30.67
2022-11-14T07:20:16.907Z,30.72
2022-11-14T07:20:53.105Z,30.58
2022-11-14T07:21:29.467Z,30.62
2022-11-14T07:22:05.827Z,30.75
2022-11-14T07:22:42.270Z,30.71
2022-11-14T07:23:22.704Z,30.75
2022-11-14T07:23:58.834Z,30.64
2022-11-14T07:24:35.053Z,30.58
2022-11-14T07:25:12.061Z,30.61
2022-11-14T07:25:48.039Z,30.49
2022-11-14T07:26:24.890Z,30.61
2022-11-14T07:27:00.704Z,30.71
2022-11-14T07:27:36.630Z,30.63
2022-11-14T07:28:13.169Z,30.55
2022-11-14T07:28:52.881Z,30.69
2022-11-14T07:29:29.810Z,30.63
2022-11-14T07:30:07.369Z,30.52
2022-11-14T07:30:43.459Z,30.62
2022-11-14T07:31:20.204Z,30.71
2022-11-14T07:31:56.424Z,30.57
2022-11-14T07:32:32.833Z,30.55
2022-11-14T07:33:08.570Z,30.54
2022-11-14T07:33:45.075Z,30.51
2022-11-14T07:34:21.587Z,30.70
2022-11-14T07:35:02.123Z,30.54
2022-11-14T07:35:38.385Z,30.61
2022-11-14T07:36:14.369Z,30.64
2022-11-14T07:36:51.482Z,30.58
2022-11-14T07:37:28.027Z,30.46
2022-11-14T07:38:04.719Z,30.52
2022-11-14T07:38:40.715Z,30.66
2022-11-14T07:39:16.603Z,30.50
2022-11-14T07:39:53.091Z,30.59
2022-11-14T07:40:29.729Z,30.64
2022-11-14T07:41:06.023Z,30.71
2022-11-14T07:41:42.504Z,30.81
2022-11-14T07:42:18.961Z,30.74
2022-11-14T07:42:55.780Z,30.64
2022-11-14T07:43:31.914Z,30.60
2022-11-14T07:44:08.717Z,30.49
2022-11-14T07:44:44.235Z,30.63
2022-11-14T07:45:21.173Z,30.73
2022-11-14T07:45:59.336Z,30.54
2022-11-14T07:46:36.294Z,30.64
2022-11-14T07:47:12.425Z,30.70
2022-11-14T07:47:48.393Z,30.66
2022-11-14T07:48:24.942Z,30.62
2022-11-14T07:49:01.082Z,30.44
2022-11-14T07:49:37.566Z,30.75
2022-11-14T07:50:17.615Z,30.58
2022-11-14T07:50:56.052Z,30.64
2022-11-14T07:51:31.939Z,30.72
2022-11-14T07:52:07.942Z,30.59
2022-11-14T07:52:44.705Z,30.56
2022-11-14T07:53:20.874Z,30.72
2022-11-14T07:53:57.724Z,30.57
2022-11-14T07:54:34.684Z,30.90
2022-11-14T07:55:10.704Z,30.66
2022-11-14T07:55:46.651Z,30.55
2022-11-14T07:56:22.458Z,30.60
2022-11-14T07:56:59.132Z,30.57
2022-11-14T07:57:40.361Z,30.54
2022-11-14T07:58:17.699Z,30.67
2022-11-14T07:58:53.631Z,30.70
2022-11-14T07:59:29.219Z,30.62
2022-11-14T08:00:05.931Z,30.75
2022-11-14T08:00:42.753Z,30.74
2022-11-14T08:01:19.312Z,30.72
2022-11-14T08:01:56.618Z,30.67
2022-11-14T08:02:33.167Z,30.54
2022-11-14T08:03:09.462Z,30.69
2022-11-14T08:03:46.226Z,30.73
2022-11-14T08:04:21.802Z,30.76
2022-11-14T08:04:58.878Z,30.59
2022-11-14T08:05:35.912Z,30.70
2022-11-14T08:06:12.216Z,30.79
2022-11-14T08:06:49.309Z,30.66
2022-11-14T08:07:26.853Z,30.76
2022-11-14T08:08:03.866Z,30.75
2022-11-14T08:08:40.785Z,30.82
2022-11-14T08:09:17.746Z,30.71
2022-11-14T08:09:53.945Z,30.74
2022-11-14T08:10:33.559Z,30.57
2022-11-14T08:11:09.250Z,30.76
2022-11-14T08:11:46.368Z,30.59
2022-11-14T08:12:22.970Z,30.89
2022-11-14T08:13:17.607Z,30.76
2022-11-14T08:13:55.101Z,30.75
2022-11-14T08:14:31.226Z,30.83
2022-11-14T08:15:06.539Z,30.80
2022-11-14T08:15:43.399Z,30.82
2022-11-14T08:16:20.413Z,30.75
2022-11-14T08:16:56.861Z,30.71
2022-11-14T08:17:34.033Z,30.65
2022-11-14T08:18:57.038Z,30.73
2022-11-14T08:19:33.379Z,30.75
2022-11-14T08:20:09.864Z,30.75
2022-11-14T08:20:46.838Z,30.92
2022-11-14T08:21:23.268Z,30.78
2022-11-14T08:21:59.429Z,30.73
2022-11-14T08:22:36.024Z,30.70
2022-11-14T08:23:12.728Z,30.66
2022-11-14T08:23:48.943Z,30.76
2022-11-14T08:24:24.874Z,30.78
2022-11-14T08:25:00.895Z,30.73
2022-11-14T08:25:37.525Z,30.76
2022-11-14T08:26:14.043Z,30.65
2022-11-14T08:26:50.296Z,30.71
2022-11-14T08:27:26.431Z,30.69
2022-11-14T08:28:03.482Z,30.73
2022-11-14T08:28:40.099Z,30.69
2022-11-14T08:29:16.268Z,30.78
2022-11-14T08:29:52.327Z,30.75
2022-11-14T08:30:27.703Z,30.81
2022-11-14T08:31:03.893Z,30.58
2022-11-14T08:31:41.218Z,30.55
2022-11-14T08:32:17.157Z,30.78
2022-11-14T08:32:53.596Z,30.93
2022-11-14T08:33:29.847Z,30.93
2022-11-14T08:34:05.592Z,30.92
2022-11-14T08:34:42.804Z,30.79
2022-11-14T08:35:20.086Z,30.93
2022-11-14T08:35:56.892Z,30.84
2022-11-14T08:36:33.163Z,30.76
2022-11-14T08:37:09.963Z,30.78
2022-11-14T08:37:46.380Z,30.72
2022-11-14T08:38:22.447Z,30.78
2022-11-14T08:39:01.764Z,30.79
2022-11-14T08:39:37.400Z,30.88
2022-11-14T08:40:13.991Z,30.82
2022-11-14T08:40:50.668Z,30.76
2022-11-14T08:41:27.260Z,30.84
2022-11-14T08:42:03.905Z,30.90
2022-11-14T08:42:41.163Z,30.74
2022-11-14T08:43:17.675Z,30.73
2022-11-14T08:43:53.974Z,30.75
2022-11-14T08:44:30.057Z,30.80
2022-11-14T08:45:05.910Z,30.90
2022-11-14T08:45:41.381Z,30.82
2022-11-14T08:46:17.995Z,30.81
2022-11-14T08:46:54.888Z,31.04
2022-11-14T08:47:31.042Z,30.89
2022-11-14T08:48:07.434Z,30.89
2022-11-14T08:48:43.873Z,30.87
2022-11-14T08:49:21.015Z,30.92
2022-11-14T08:49:56.986Z,30.85
2022-11-14T08:50:32.661Z,30.82
2022-11-14T08:51:09.286Z,30.76
2022-11-14T08:51:46.500Z,31.07
2022-11-14T08:52:22.570Z,30.75
2022-11-14T08:52:58.967Z,30.87
2022-11-14T08:53:34.518Z,30.83
2022-11-14T08:54:10.490Z,30.88
2022-11-14T08:54:46.356Z,30.95
2022-11-14T08:55:23.384Z,30.90
2022-11-14T08:55:59.637Z,31.00
2022-11-14T08:56:35.850Z,30.90
2022-11-14T08:57:11.522Z,30.84
2022-11-14T08:57:49.636Z,30.89
2022-11-14T08:58:25.711Z,30.80
2022-11-14T09:00:11.272Z,30.79
2022-11-14T09:00:55.192Z,30.80
2022-11-14T09:01:38.241Z,30.91
2022-11-14T09:02:22.818Z,30.81
2022-11-14T09:05:27.915Z,31.06
2022-11-14T09:06:19.799Z,30.85
2022-11-14T09:07:12.954Z,30.99
2022-11-14T09:08:12.129Z,30.91
2022-11-14T09:09:07.051Z,30.92
2022-11-14T09:09:50.733Z,30.98
2022-11-14T09:10:34.147Z,31.03
2022-11-14T09:11:19.345Z,30.87
2022-11-14T09:12:06.068Z,31.00
2022-11-14T09:12:51.834Z,30.93
2022-11-14T09:14:57.382Z,30.87
2022-11-14T09:15:36.884Z,30.90
2022-11-14T09:16:23.817Z,30.84
2022-11-14T09:17:15.934Z,31.00
2022-11-14T09:18:08.425Z,30.91
2022-11-14T09:18:59.953Z,31.06
2022-11-14T09:19:48.256Z,31.05
2022-11-14T09:20:37.502Z,30.90
2022-11-14T09:21:26.100Z,30.98
2022-11-14T09:28:29.281Z,31.35
2022-11-14T09:29:17.552Z,31.39
2022-11-14T09:30:08.838Z,31.22
2022-11-14T09:31:44.799Z,31.32
2022-11-14T09:32:16.257Z,31.29
2022-11-14T09:32:47.683Z,31.36
2022-11-14T09:33:19.077Z,31.30
2022-11-14T09:33:50.510Z,31.45
2022-11-14T09:34:21.907Z,31.56
2022-11-14T09:34:53.325Z,31.52
2022-11-14T09:35:24.729Z,31.36
2022-11-14T09:35:56.218Z,31.46
2022-11-14T09:36:27.685Z,31.44
2022-11-14T09:36:59.182Z,31.36
2022-11-14T09:37:30.594Z,31.48
2022-11-14T09:38:02.036Z,31.35
2022-11-14T09:38:38.255Z,31.48
2022-11-14T09:39:10.279Z,31.44
2022-11-14T09:39:41.733Z,31.45
2022-11-14T09:40:13.170Z,31.36
2022-11-14T09:40:44.595Z,31.37
2022-11-14T09:41:16.059Z,31.49
2022-11-14T09:41:50.519Z,31.22
2022-11-14T09:42:21.910Z,31.35
2022-11-14T09:42:53.330Z,31.58
2022-11-14T09:43:24.716Z,31.44
2022-11-14T09:43:56.081Z,31.48
2022-11-14T09:44:27.611Z,31.48
2022-11-14T09:44:59.028Z,31.57
2022-11-14T09:45:30.424Z,31.48
2022-11-14T09:46:01.905Z,31.48
2022-11-14T09:46:33.328Z,31.51
2022-11-14T09:47:04.716Z,31.49
2022-11-14T09:47:36.111Z,31.56
2022-11-14T09:48:07.547Z,31.45
2022-11-14T09:48:39.019Z,31.31
2022-11-14T09:49:11.829Z,31.33
2022-11-14T09:49:43.308Z,31.32
2022-11-14T09:50:14.777Z,31.27
2022-11-14T09:50:46.238Z,31.34
2022-11-14T09:51:19.957Z,31.42
2022-11-14T09:51:51.372Z,31.36
2022-11-14T09:52:22.794Z,31.43
2022-11-14T09:52:54.200Z,31.52
2022-11-14T09:53:25.624Z,31.44
2022-11-14T09:53:57.064Z,31.43
2022-11-14T09:54:28.567Z,31.49
2022-11-14T09:55:00.150Z,31.52
2022-11-14T09:55:37.238Z,31.48
2022-11-14T09:56:09.036Z,31.58
2022-11-14T09:56:40.476Z,31.76
2022-11-14T09:57:11.873Z,31.59
2022-11-14T09:57:43.314Z,31.70
2022-11-14T09:58:14.747Z,31.60
2022-11-14T09:58:46.231Z,31.69
2022-11-14T09:59:17.726Z,31.42
2022-11-14T09:59:49.114Z,31.62
2022-11-14T10:00:20.616Z,31.51
2022-11-14T10:00:52.033Z,31.51
2022-11-14T10:01:23.486Z,31.54
2022-11-14T10:01:54.930Z,31.68
2022-11-14T10:02:26.439Z,31.74
2022-11-14T10:03:00.445Z,31.75
2022-11-14T10:03:32.383Z,31.56
2022-11-14T10:04:08.324Z,31.56
2022-11-14T10:04:40.879Z,31.70
2022-11-14T10:05:12.258Z,31.58
2022-11-14T10:05:43.684Z,31.51
2022-11-14T10:06:15.118Z,31.70
2022-11-14T10:06:46.567Z,31.78
2022-11-14T10:07:18.067Z,31.74
2022-11-14T10:07:49.559Z,31.61
2022-11-14T10:08:20.940Z,31.61
2022-11-14T10:08:52.338Z,31.56
2022-11-14T10:09:28.862Z,31.59
2022-11-14T10:10:01.845Z,31.58
2022-11-14T10:10:38.913Z,31.54
2022-11-14T10:11:10.498Z,31.67
2022-11-14T10:11:42.029Z,31.52
2022-11-14T10:12:13.431Z,31.51
2022-11-14T10:12:44.859Z,31.61
2022-11-14T10:13:16.298Z,31.51
2022-11-14T10:13:47.756Z,31.49
2022-11-14T10:14:22.142Z,31.63
2022-11-14T10:14:53.642Z,31.63
2022-11-14T10:15:28.532Z,31.64
2022-11-14T10:16:02.617Z,31.66
2022-11-14T10:16:34.037Z,31.92
2022-11-14T10:17:10.311Z,31.84
2022-11-14T10:17:44.828Z,31.83
2022-11-14T10:18:18.851Z,32.09
2022-11-14T10:18:50.319Z,31.95
2022-11-14T10:19:21.719Z,31.78
2022-11-14T10:19:53.169Z,31.85
2022-11-14T10:20:24.626Z,31.95
2022-11-14T10:20:56.054Z,31.85
2022-11-14T10:21:27.480Z,31.84
2022-11-14T10:21:58.907Z,31.99
2022-11-14T10:22:30.406Z,31.84
2022-11-14T10:23:01.897Z,32.02
2022-11-14T10:23:35.415Z,31.95
2022-11-14T10:24:06.828Z,32.02
2022-11-14T10:24:41.247Z,31.88
2022-11-14T10:25:17.995Z,31.91
2022-11-14T10:25:49.479Z,31.80
2022-11-14T10:26:20.922Z,32.12
2022-11-14T10:26:52.481Z,31.85
2022-11-14T10:27:23.889Z,32.16
2022-11-14T10:27:58.520Z,32.17
2022-11-14T10:28:32.667Z,32.02
2022-11-14T10:29:04.389Z,32.16
2022-11-14T10:29:35.827Z,32.01
2022-11-14T10:30:07.496Z,31.97
2022-11-14T10:30:38.969Z,32.07
2022-11-14T10:31:12.967Z,31.84
2022-11-14T10:31:47.191Z,32.13
2022-11-14T10:32:18.606Z,32.14
2022-11-14T10:32:50.077Z,31.96
2022-11-14T10:33:24.447Z,32.19
2022-11-14T10:33:55.827Z,32.02
2022-11-14T10:34:27.246Z,32.05
2022-11-14T10:34:58.664Z,32.00
2022-11-14T10:35:34.949Z,32.03
2022-11-14T10:36:06.877Z,32.04
2022-11-14T10:36:40.876Z,32.03
2022-11-14T10:37:12.309Z,32.09
2022-11-14T10:37:43.691Z,31.94
2022-11-14T10:38:15.149Z,32.02
2022-11-14T10:38:46.595Z,32.22
2022-11-14T10:39:18.010Z,32.11
2022-11-14T10:39:49.451Z,31.95
2022-11-14T10:40:20.849Z,32.13
2022-11-14T10:40:52.358Z,32.00
2022-11-14T10:41:50.335Z,32.22
2022-11-14T10:42:17.350Z,32.16
2022-11-14T10:42:48.800Z,32.01
2022-11-14T10:43:20.199Z,32.08
2022-11-14T10:43:51.606Z,32.24
2022-11-14T10:44:23.084Z,32.17
2022-11-14T10:44:54.506Z,32.18
2022-11-14T10:45:25.949Z,32.19
2022-11-14T10:45:57.448Z,32.05
2022-11-14T10:46:28.845Z,32.18
2022-11-14T10:47:00.281Z,32.04
2022-11-14T10:47:31.682Z,32.24
2022-11-14T10:48:03.140Z,32.19
2022-11-14T10:48:34.542Z,32.28
2022-11-14T10:49:05.936Z,32.33
2022-11-14T10:49:37.419Z,32.28
2022-11-14T10:50:11.526Z,31.96
2022-11-14T10:50:42.952Z,31.96
2022-11-14T10:51:14.436Z,32.15
2022-11-14T10:51:45.833Z,32.11
2022-11-14T10:52:18.691Z,32.16
2022-11-14T10:52:50.522Z,32.19
2022-11-14T10:53:21.987Z,32.28
2022-11-14T10:53:53.448Z,32.25
2022-11-14T10:54:24.854Z,32.20
2022-11-14T10:54:56.331Z,32.21
2022-11-14T10:55:50.099Z,32.20
2022-11-14T10:56:19.137Z,32.12
2022-11-14T10:56:50.614Z,32.17
2022-11-14T10:57:24.099Z,32.18
2022-11-14T10:57:55.506Z,32.19
2022-11-14T10:58:26.956Z,32.31
2022-11-14T10:58:58.357Z,32.17
2022-11-14T10:59:32.109Z,32.19
2022-11-14T11:00:04.120Z,32.19
2022-11-14T11:00:35.491Z,32.20
2022-11-14T11:01:06.985Z,32.26
2022-11-14T11:01:38.555Z,32.38
2022-11-14T11:02:10.197Z,32.29
2022-11-14T11:02:41.606Z,32.29
2022-11-14T11:03:13.079Z,32.31
2022-11-14T11:03:44.669Z,32.30
2022-11-14T11:04:20.228Z,32.32
2022-11-14T11:04:51.703Z,32.44
2022-11-14T11:05:23.151Z,32.16
2022-11-14T11:05:54.568Z,32.39
2022-11-14T11:06:26.016Z,32.36
2022-11-14T11:06:57.461Z,32.03
2022-11-14T11:07:31.645Z,32.33
2022-11-14T11:08:21.496Z,32.31
2022-11-14T11:08:54.604Z,32.18
2022-11-14T11:09:26.193Z,32.17
2022-11-14T11:09:57.604Z,32.46
2022-11-14T11:10:29.052Z,32.44
2022-11-14T11:11:00.462Z,32.14
2022-11-14T11:11:31.849Z,32.20
2022-11-14T11:12:03.243Z,32.45
2022-11-14T11:12:34.765Z,32.42
2022-11-14T11:13:06.287Z,32.27
2022-11-14T11:13:40.148Z,32.19
2022-11-14T11:14:11.632Z,32.13
2022-11-14T11:14:45.884Z,32.39
2022-11-14T11:15:17.297Z,32.23
2022-11-14T11:15:48.703Z,32.36
2022-11-14T11:16:20.165Z,32.22
2022-11-14T11:16:54.215Z,32.31
2022-11-14T11:17:31.374Z,32.29
2022-11-14T11:18:07.616Z,32.27
2022-11-14T11:18:39.022Z,32.20
2022-11-14T11:19:10.456Z,32.32
2022-11-14T11:19:41.920Z,32.30
2022-11-14T11:20:15.030Z,32.17
2022-11-14T11:20:46.490Z,32.32
2022-11-14T11:21:18.002Z,32.35
2022-11-14T11:21:49.543Z,32.22
2022-11-14T11:22:21.080Z,32.39
2022-11-14T11:22:52.518Z,32.44
2022-11-14T11:23:23.979Z,32.38
2022-11-14T11:23:55.418Z,32.51
2022-11-14T11:24:26.838Z,32.26
2022-11-14T11:24:58.252Z,32.43
2022-11-14T11:25:30.685Z,32.35
2022-11-14T11:26:02.415Z,32.40
2022-11-14T11:26:33.942Z,32.45
2022-11-14T11:27:05.365Z,32.48
2022-11-14T11:27:36.808Z,32.46
2022-11-14T11:28:08.276Z,32.41
2022-11-14T11:28:39.730Z,32.50
2022-11-14T11:29:11.135Z,32.43
2022-11-14T11:29:42.582Z,32.37
2022-11-14T11:30:15.155Z,32.35
2022-11-14T11:30:50.581Z,32.30
2022-11-14T11:31:24.731Z,32.39
2022-11-14T11:31:56.138Z,32.46
2022-11-14T11:32:27.553Z,32.19
2022-11-14T11:32:59.027Z,32.25
2022-11-14T11:33:30.864Z,32.35
2022-11-14T11:34:05.161Z,32.33
2022-11-14T11:34:39.118Z,32.50
2022-11-14T11:35:10.538Z,32.42
2022-11-14T11:35:41.958Z,32.50
2022-11-14T11:36:15.598Z,32.51
2022-11-14T11:36:47.198Z,32.47
2022-11-14T11:37:18.726Z,32.45
2022-11-14T11:37:50.216Z,32.33
2022-11-14T11:38:24.461Z,32.54
2022-11-14T11:38:55.852Z,32.33
2022-11-14T11:39:27.222Z,32.39
2022-11-14T11:39:58.590Z,32.36
2022-11-14T11:40:30.059Z,32.45
2022-11-14T11:41:01.462Z,32.50
2022-11-14T11:42:06.100Z,32.54
2022-11-14T11:42:24.302Z,32.45
2022-11-14T11:43:47.115Z,32.44
2022-11-14T11:44:18.554Z,32.33
2022-11-14T11:44:49.964Z,32.48
2022-11-14T11:45:21.389Z,32.51
2022-11-14T11:45:52.819Z,32.50
2022-11-14T11:46:24.198Z,32.38
2022-11-14T11:46:55.633Z,32.64
2022-11-14T11:47:27.019Z,32.35
2022-11-14T11:47:58.433Z,32.44
2022-11-14T11:48:29.844Z,32.44
2022-11-14T11:49:03.726Z,32.52
2022-11-14T11:49:37.989Z,32.46
2022-11-14T11:50:09.494Z,32.43
2022-11-14T11:50:41.997Z,32.37
2022-11-14T11:51:19.420Z,32.26
2022-11-14T11:51:55.404Z,32.42
2022-11-14T11:52:26.841Z,32.48
2022-11-14T11:52:59.475Z,32.37
2022-11-14T11:53:31.096Z,32.45
2022-11-14T11:54:02.721Z,32.53
2022-11-14T11:54:34.145Z,32.58
2022-11-14T11:55:05.533Z,32.43
2022-11-14T11:55:36.947Z,32.48
2022-11-14T11:56:08.465Z,32.50
2022-11-14T11:56:39.963Z,32.41
2022-11-14T11:57:18.518Z,32.26
2022-11-14T11:57:52.794Z,32.52
2022-11-14T11:58:27.196Z,32.32
2022-11-14T11:58:58.639Z,32.56
2022-11-14T11:59:30.019Z,32.46
2022-11-14T12:00:02.038Z,32.43
2022-11-14T12:00:36.443Z,32.51
2022-11-14T12:01:10.408Z,32.55
2022-11-14T12:01:41.855Z,32.36
2022-11-14T12:02:13.381Z,32.47
2022-11-14T12:02:50.031Z,32.49
2022-11-14T12:03:22.041Z,32.36
2022-11-14T12:03:53.583Z,32.37
2022-11-14T12:04:25.019Z,32.54
2022-11-14T12:04:56.516Z,32.48
2022-11-14T12:05:27.905Z,32.49
2022-11-14T12:05:59.363Z,32.40
2022-11-14T12:06:30.804Z,32.51
2022-11-14T12:07:02.318Z,32.53
2022-11-14T12:07:33.875Z,32.55